Time;durP1;ratioP1;P1;durP2;ratioP2;P2;SDS_P1;SDS_P2;PMS_P1;PMS_P2;Temp;Humidity;BMP_temperature;BMP_pressure;BME280_temperature;BME280_humidity;BME280_pressure;Samples;Min_cycle;Max_cycle;Signal;HPM_P1;HPM_P2
2022/12/22 03:27:30;;;;;;;83.88;33.67;;;7.40;99.90;;;;;;5058832;28;20043;-68
2022/12/22 03:29:56;;;;;;;90.57;35.30;;;7.40;99.90;;;;;;5041098;28;20518;-68
2022/12/22 03:32:21;;;;;;;98.90;34.10;;;7.50;99.90;;;;;;5057809;28;20029;-68
2022/12/22 03:34:47;;;;;;;115.53;33.97;;;7.40;99.90;;;;;;5056733;28;20032;-70
2022/12/22 03:37:12;;;;;;;141.18;34.13;;;7.50;99.90;;;;;;5045125;28;20021;-68
2022/12/22 03:39:38;;;;;;;128.30;34.88;;;7.50;99.90;;;;;;5056433;28;20051;-69
2022/12/22 03:47:32;;;;;;;162.23;31.70;;;7.50;99.90;;;;;;5044111;28;20499;-70
2022/12/22 03:49:58;;;;;;;144.18;34.10;;;7.50;99.90;;;;;;5050326;28;20081;-69
2022/12/22 03:52:23;;;;;;;208.43;33.08;;;7.40;99.90;;;;;;5049525;28;20040;-69
2022/12/22 03:54:50;;;;;;;100.50;33.33;;;7.50;99.90;;;;;;5046155;28;20037;-68
2022/12/22 03:57:15;;;;;;;73.38;32.45;;;7.40;99.90;;;;;;5050093;28;20091;-69
2022/12/22 03:59:41;;;;;;;100.47;35.33;;;7.40;99.90;;;;;;5045655;28;20021;-69
2022/12/22 04:02:06;;;;;;;99.63;33.85;;;7.50;99.90;;;;;;5049531;28;20029;-69
2022/12/22 04:04:32;;;;;;;105.00;33.83;;;7.50;99.90;;;;;;5049634;28;20060;-70
2022/12/22 04:06:58;;;;;;;91.35;32.03;;;7.50;99.90;;;;;;5040008;28;20033;-70
2022/12/22 04:09:25;;;;;;;86.50;33.95;;;7.50;99.90;;;;;;5055235;28;20018;-69
2022/12/22 04:14:36;;;;;;;85.65;32.70;;;7.50;99.90;;;;;;5049258;28;20037;-70
2022/12/22 04:17:04;;;;;;;88.10;33.85;;;7.50;99.90;;;;;;5049570;28;20037;-72
2022/12/22 04:19:31;;;;;;;88.85;33.53;;;7.50;99.90;;;;;;5049353;28;20017;-69
2022/12/22 04:21:57;;;;;;;78.43;32.78;;;7.50;99.90;;;;;;5039882;28;20037;-69
2022/12/22 04:24:22;;;;;;;80.35;30.88;;;7.50;99.90;;;;;;5048869;28;20099;-69
2022/12/22 04:26:49;;;;;;;90.28;33.47;;;7.50;99.90;;;;;;5050152;28;20087;-69
2022/12/22 04:29:14;;;;;;;93.07;32.70;;;7.60;99.90;;;;;;5052656;28;20039;-69
2022/12/22 04:31:40;;;;;;;84.03;33.38;;;7.50;99.90;;;;;;5051767;28;20081;-70
2022/12/22 04:34:06;;;;;;;78.38;32.13;;;7.60;99.90;;;;;;5052157;28;20473;-70
2022/12/22 04:36:32;;;;;;;76.00;32.75;;;7.60;99.90;;;;;;5052046;28;20034;-70
2022/12/22 04:38:57;;;;;;;81.93;34.15;;;7.60;99.90;;;;;;5057763;28;20056;-70
2022/12/22 04:41:23;;;;;;;77.85;32.05;;;7.60;99.90;;;;;;5061953;28;20025;-70
2022/12/22 04:43:48;;;;;;;74.40;33.40;;;7.60;99.90;;;;;;5054329;28;20033;-69
2022/12/22 04:46:14;;;;;;;90.20;33.92;;;7.60;99.90;;;;;;5038523;28;20120;-68
2022/12/22 04:48:39;;;;;;;80.82;34.13;;;7.60;99.90;;;;;;5057002;28;20874;-69
2022/12/22 04:51:05;;;;;;;77.82;33.45;;;7.60;99.90;;;;;;5052643;28;20029;-69
2022/12/22 04:53:32;;;;;;;79.00;33.25;;;7.60;99.90;;;;;;5053379;28;20147;-69
2022/12/22 04:56:03;;;;;;;85.00;33.72;;;7.60;99.90;;;;;;5057663;28;20037;-70
2022/12/22 04:58:30;;;;;;;77.93;31.00;;;7.60;99.90;;;;;;5060696;28;20017;-67
2022/12/22 05:00:56;;;;;;;76.07;32.47;;;7.60;99.90;;;;;;5041916;28;20040;-68
2022/12/22 05:03:23;;;;;;;82.40;33.88;;;7.60;99.90;;;;;;5051031;28;20116;-69
2022/12/22 05:05:48;;;;;;;76.10;33.20;;;7.60;99.90;;;;;;5051394;28;20100;-69
2022/12/22 05:08:14;;;;;;;80.72;32.67;;;7.70;99.90;;;;;;5058269;28;20048;-69
2022/12/22 05:10:40;;;;;;;73.97;31.80;;;7.70;99.90;;;;;;5061440;28;20025;-70
2022/12/22 05:13:06;;;;;;;90.47;33.47;;;7.70;99.90;;;;;;5042328;28;21228;-68
2022/12/22 05:15:34;;;;;;;78.82;32.25;;;7.70;99.90;;;;;;5060490;28;20044;-68
2022/12/22 05:18:00;;;;;;;81.47;32.20;;;7.70;99.90;;;;;;5061193;28;20037;-68
2022/12/22 05:20:27;;;;;;;76.65;30.50;;;7.70;99.90;;;;;;5060708;28;20037;-70
2022/12/22 05:22:53;;;;;;;79.22;33.25;;;7.70;99.90;;;;;;5054007;28;20025;-69
2022/12/22 05:25:19;;;;;;;74.40;32.97;;;7.70;99.90;;;;;;5056646;28;20131;-68
2022/12/22 05:27:47;;;;;;;82.82;32.70;;;7.70;99.90;;;;;;5060240;28;20079;-69
2022/12/22 05:30:13;;;;;;;92.13;33.80;;;7.70;99.90;;;;;;5043840;28;20053;-68
2022/12/22 05:32:40;;;;;;;79.15;32.47;;;7.70;99.90;;;;;;5050804;28;20059;-68
2022/12/22 05:35:06;;;;;;;79.68;32.85;;;7.70;99.90;;;;;;5053546;28;20085;-69
2022/12/22 05:37:32;;;;;;;88.60;33.40;;;7.70;99.90;;;;;;5060259;28;20024;-72
2022/12/22 05:39:58;;;;;;;83.00;33.40;;;7.70;99.90;;;;;;5058910;28;20025;-69
2022/12/22 05:42:36;;;;;;;83.78;32.67;;;7.70;99.90;;;;;;5051880;28;20094;-70
2022/12/22 05:45:13;;;;;;;81.07;31.70;;;7.70;99.90;;;;;;5043211;28;20041;-70
2022/12/22 05:47:40;;;;;;;83.85;31.42;;;7.70;99.90;;;;;;5059685;28;20033;-72
2022/12/22 05:50:07;;;;;;;82.28;32.33;;;7.70;99.90;;;;;;5059483;28;20132;-70
2022/12/22 05:52:34;;;;;;;81.65;32.50;;;7.70;99.90;;;;;;5059583;28;20053;-71
2022/12/22 05:55:00;;;;;;;103.25;32.10;;;7.70;99.90;;;;;;5059697;28;20060;-71
2022/12/22 05:57:25;;;;;;;141.38;33.22;;;7.70;99.90;;;;;;5042308;28;20025;-71
2022/12/22 05:59:51;;;;;;;160.75;32.92;;;7.70;99.90;;;;;;5059286;28;20033;-70
2022/12/22 06:02:17;;;;;;;165.32;32.58;;;7.70;99.90;;;;;;5059128;28;20061;-73
2022/12/22 06:04:43;;;;;;;100.60;30.92;;;7.70;99.90;;;;;;5059006;28;20116;-70
2022/12/22 06:07:09;;;;;;;175.13;32.05;;;7.70;99.90;;;;;;5059096;28;20033;-71
2022/12/22 06:09:34;;;;;;;75.65;30.60;;;7.70;99.90;;;;;;5048470;28;20043;-73
2022/12/22 06:12:00;;;;;;;99.45;32.13;;;7.70;99.90;;;;;;5038427;28;20029;-72
2022/12/22 06:14:25;;;;;;;102.85;30.27;;;7.70;99.90;;;;;;5060670;28;20025;-72
2022/12/22 06:16:51;;;;;;;96.18;30.75;;;7.70;99.90;;;;;;5059087;28;20025;-72
2022/12/22 06:19:16;;;;;;;86.93;31.50;;;7.70;99.90;;;;;;5031275;28;20033;-73
2022/12/22 06:21:42;;;;;;;75.75;31.20;;;7.70;99.90;;;;;;5050813;28;20134;-74
2022/12/22 06:24:09;;;;;;;79.57;31.92;;;7.70;99.90;;;;;;5042125;28;20067;-71
2022/12/22 06:26:35;;;;;;;91.88;32.53;;;7.80;99.90;;;;;;5053666;28;20029;-71
2022/12/22 06:29:00;;;;;;;70.28;30.13;;;7.70;99.90;;;;;;5030311;28;20024;-73
2022/12/22 06:31:26;;;;;;;75.43;29.98;;;7.70;99.90;;;;;;5051692;28;20045;-71
2022/12/22 06:33:51;;;;;;;70.43;29.40;;;7.70;99.90;;;;;;5040153;28;20025;-72
2022/12/22 06:36:17;;;;;;;80.15;30.50;;;7.70;99.90;;;;;;5053932;28;20112;-70
2022/12/22 06:38:43;;;;;;;76.55;32.45;;;7.70;99.90;;;;;;5016532;28;20057;-69
2022/12/22 06:41:08;;;;;;;83.45;32.70;;;7.70;99.90;;;;;;5049068;28;20993;-70
2022/12/22 06:43:34;;;;;;;66.30;28.85;;;7.80;99.90;;;;;;5050265;28;20085;-70
2022/12/22 06:45:59;;;;;;;77.43;31.00;;;7.80;99.90;;;;;;5049896;28;20025;-70
2022/12/22 06:48:25;;;;;;;73.63;30.02;;;7.80;99.90;;;;;;5057131;28;20052;-72
2022/12/22 06:50:50;;;;;;;81.22;33.47;;;7.80;99.90;;;;;;5039471;28;20048;-71
2022/12/22 06:53:16;;;;;;;74.30;31.23;;;7.80;99.90;;;;;;5054668;28;20083;-71
2022/12/22 06:55:42;;;;;;;80.20;32.10;;;7.80;99.90;;;;;;5055959;28;20043;-70
2022/12/22 06:58:08;;;;;;;83.15;33.25;;;7.80;99.90;;;;;;5028173;28;20052;-71
2022/12/22 07:00:47;;;;;;;71.03;31.15;;;7.80;99.90;;;;;;5050563;28;20037;-72
2022/12/22 07:03:12;;;;;;;72.60;30.90;;;7.80;99.90;;;;;;5048229;28;20025;-71
2022/12/22 07:05:38;;;;;;;78.47;31.90;;;7.80;99.90;;;;;;5030889;28;20500;-71
2022/12/22 07:08:04;;;;;;;77.78;31.52;;;7.90;99.90;;;;;;5052209;28;20037;-71
2022/12/22 07:13:20;;;;;;;82.30;31.83;;;7.80;99.90;;;;;;5052808;28;20033;-73
2022/12/22 07:15:46;;;;;;;161.60;33.40;;;7.80;99.90;;;;;;5034807;28;20036;-69
2022/12/22 07:18:12;;;;;;;101.10;32.42;;;7.80;99.90;;;;;;5052885;28;20029;-73
2022/12/22 07:20:38;;;;;;;85.95;32.42;;;7.80;99.90;;;;;;5054484;28;20050;-71
2022/12/22 07:23:03;;;;;;;140.35;35.00;;;7.80;99.90;;;;;;5052988;28;20022;-73
2022/12/22 07:25:29;;;;;;;296.20;36.92;;;7.80;99.90;;;;;;5050187;28;20106;-70
2022/12/22 07:27:54;;;;;;;79.30;31.25;;;7.80;99.90;;;;;;5049005;28;20021;-70
2022/12/22 07:30:20;;;;;;;80.35;31.15;;;7.80;99.90;;;;;;5036698;28;20029;-70
2022/12/22 07:32:45;;;;;;;75.95;33.38;;;7.80;99.90;;;;;;5056841;28;20081;-71
2022/12/22 07:35:12;;;;;;;87.70;34.58;;;7.80;99.90;;;;;;5052571;28;20044;-72
2022/12/22 07:37:39;;;;;;;85.97;35.05;;;7.80;99.90;;;;;;5051683;28;20052;-71
2022/12/22 07:40:05;;;;;;;95.10;38.53;;;7.80;99.90;;;;;;5046594;28;20037;-70
2022/12/22 07:42:43;;;;;;;93.47;36.53;;;7.80;99.90;;;;;;5055792;28;20020;-70
2022/12/22 07:45:09;;;;;;;96.57;37.10;;;7.80;99.90;;;;;;5053129;28;20060;-70
2022/12/22 07:47:35;;;;;;;133.43;39.38;;;7.90;99.90;;;;;;5036120;28;20025;-72
2022/12/22 07:52:45;;;;;;;83.28;34.28;;;7.90;99.90;;;;;;5050621;28;20513;-70
2022/12/22 07:55:10;;;;;;;93.82;35.70;;;7.90;99.90;;;;;;5053059;28;20025;-72
2022/12/22 07:57:38;;;;;;;94.00;36.63;;;8.00;99.90;;;;;;5041588;28;20021;-70
2022/12/22 08:00:04;;;;;;;98.97;37.53;;;8.00;99.90;;;;;;5056227;28;20108;-71
2022/12/22 08:02:30;;;;;;;96.53;38.25;;;8.00;99.90;;;;;;5040593;28;20033;-70
2022/12/22 08:04:56;;;;;;;106.28;38.20;;;8.00;99.90;;;;;;5055769;28;20089;-71
2022/12/22 08:07:21;;;;;;;102.40;38.50;;;8.00;99.90;;;;;;5057220;28;20029;-70
2022/12/22 08:09:47;;;;;;;105.75;38.67;;;8.10;99.90;;;;;;5051190;28;20025;-69
2022/12/22 08:12:12;;;;;;;105.63;36.63;;;8.10;99.90;;;;;;5057967;28;20033;-71
2022/12/22 08:14:38;;;;;;;112.85;38.90;;;8.10;99.90;;;;;;5034224;28;20025;-69
2022/12/22 08:17:04;;;;;;;108.03;37.70;;;8.10;99.90;;;;;;5057675;28;20389;-69
2022/12/22 08:19:31;;;;;;;108.57;39.65;;;8.10;99.90;;;;;;5060204;28;20029;-69
2022/12/22 08:21:57;;;;;;;112.30;39.92;;;8.10;99.90;;;;;;5055782;28;20654;-70
2022/12/22 08:24:23;;;;;;;98.18;37.85;;;8.10;99.90;;;;;;5056077;28;20033;-71
2022/12/22 08:26:53;;;;;;;102.75;38.55;;;8.20;99.90;;;;;;5060813;28;20028;-71
2022/12/22 08:29:24;;;;;;;108.32;39.28;;;8.20;99.90;;;;;;5062099;28;20076;-70
2022/12/22 08:31:50;;;;;;;99.93;37.42;;;8.20;99.90;;;;;;5043822;28;20640;-69
2022/12/22 08:34:15;;;;;;;97.70;36.97;;;8.20;99.90;;;;;;5062576;28;20029;-69
2022/12/22 08:36:46;;;;;;;103.45;39.67;;;8.20;99.90;;;;;;5062414;28;20623;-69
2022/12/22 08:39:13;;;;;;;91.47;36.25;;;8.20;99.90;;;;;;5061874;28;20025;-68
2022/12/22 08:41:51;;;;;;;102.65;38.22;;;8.30;99.90;;;;;;5061894;28;20021;-71
2022/12/22 08:44:28;;;;;;;97.85;38.40;;;8.30;99.90;;;;;;5060350;28;20041;-69
2022/12/22 08:46:55;;;;;;;102.25;38.35;;;8.30;99.90;;;;;;5044292;28;20092;-69
2022/12/22 08:49:21;;;;;;;99.05;39.88;;;8.20;99.90;;;;;;5059847;28;20083;-69
2022/12/22 08:51:47;;;;;;;105.50;41.13;;;8.30;99.90;;;;;;5060844;28;20033;-68
2022/12/22 08:54:13;;;;;;;96.85;37.13;;;8.30;99.90;;;;;;5061281;28;20115;-71
2022/12/22 08:56:39;;;;;;;93.93;38.40;;;8.30;99.90;;;;;;5040972;28;20459;-70
2022/12/22 08:59:06;;;;;;;91.68;34.85;;;8.30;99.90;;;;;;5059207;28;20021;-71
2022/12/22 09:01:35;;;;;;;101.15;38.53;;;8.40;99.90;;;;;;5059323;28;20033;-73
2022/12/22 09:04:01;;;;;;;95.25;38.72;;;8.40;99.90;;;;;;5060643;28;20037;-69
2022/12/22 09:06:28;;;;;;;96.30;37.42;;;8.40;99.90;;;;;;5061490;28;20024;-69
2022/12/22 09:08:58;;;;;;;103.55;38.30;;;8.40;99.90;;;;;;5059605;28;20029;-71
2022/12/22 09:11:25;;;;;;;86.78;37.05;;;8.40;99.90;;;;;;5042793;28;20070;-71
2022/12/22 09:13:52;;;;;;;91.85;36.92;;;8.40;99.90;;;;;;5044270;28;20029;-71
2022/12/22 09:16:19;;;;;;;98.03;38.00;;;8.50;99.90;;;;;;5061695;28;20028;-70
2022/12/22 09:18:45;;;;;;;93.93;38.22;;;8.50;99.90;;;;;;5061483;28;20116;-69
2022/12/22 09:21:11;;;;;;;102.40;39.13;;;8.50;99.90;;;;;;5060238;28;20079;-69
2022/12/22 09:23:37;;;;;;;89.60;36.97;;;8.50;99.90;;;;;;5061574;28;20127;-70
2022/12/22 09:26:08;;;;;;;90.72;37.65;;;8.50;99.90;;;;;;5062013;28;20037;-70
2022/12/22 09:28:34;;;;;;;92.57;38.33;;;8.50;99.90;;;;;;5061217;28;20025;-70
2022/12/22 09:31:00;;;;;;;98.75;37.40;;;8.50;99.90;;;;;;5061694;28;20025;-70
2022/12/22 09:33:26;;;;;;;89.70;35.88;;;8.50;99.90;;;;;;5049557;28;20109;-70
2022/12/22 09:35:52;;;;;;;89.57;35.78;;;8.50;99.90;;;;;;5051842;28;20033;-68
2022/12/22 09:38:17;;;;;;;88.25;36.25;;;8.50;99.90;;;;;;5051964;28;20078;-69
2022/12/22 09:40:43;;;;;;;86.78;35.25;;;8.60;99.90;;;;;;5053717;28;20588;-69
2022/12/22 09:43:16;;;;;;;93.40;37.17;;;8.50;99.90;;;;;;5056218;28;20025;-70
2022/12/22 09:45:43;;;;;;;88.97;37.63;;;8.50;99.90;;;;;;5051799;28;20040;-71
2022/12/22 09:48:13;;;;;;;87.70;35.42;;;8.50;99.90;;;;;;5051416;28;20033;-69
2022/12/22 09:50:40;;;;;;;90.57;37.05;;;8.50;99.90;;;;;;5052827;28;20052;-70
2022/12/22 09:53:12;;;;;;;89.88;36.05;;;8.50;99.90;;;;;;5054443;28;20493;-70
2022/12/22 09:55:47;;;;;;;79.10;34.17;;;8.50;99.90;;;;;;5039428;28;20029;-69
2022/12/22 09:58:31;;;;;;;81.90;33.33;;;8.50;99.90;;;;;;5057770;28;20147;-69
2022/12/22 10:01:22;;;;;;;80.72;32.83;;;8.50;99.90;;;;;;5053205;28;20033;-69
2022/12/22 10:04:09;;;;;;;76.85;31.38;;;8.40;99.90;;;;;;5053001;28;20484;-68
2022/12/22 10:06:59;;;;;;;80.85;30.10;;;8.40;99.90;;;;;;5053295;28;20064;-70
2022/12/22 10:09:28;;;;;;;65.15;28.83;;;8.30;99.90;;;;;;5052009;28;20028;-69
2022/12/22 10:11:59;;;;;;;67.72;27.48;;;8.40;99.90;;;;;;5050972;28;20025;-68
2022/12/22 10:14:34;;;;;;;68.40;28.60;;;8.40;99.90;;;;;;5052098;28;20056;-68
2022/12/22 10:17:19;;;;;;;67.63;29.77;;;8.40;99.90;;;;;;5041943;28;20040;-68
2022/12/22 10:19:46;;;;;;;68.97;28.58;;;8.40;99.90;;;;;;5053298;28;20025;-67
2022/12/22 10:22:32;;;;;;;66.60;28.02;;;8.50;99.90;;;;;;5060156;28;20025;-68
2022/12/22 10:25:02;;;;;;;59.15;26.33;;;8.60;99.90;;;;;;5057234;28;20063;-69
2022/12/22 10:27:34;;;;;;;66.43;27.75;;;8.80;99.90;;;;;;5059365;28;20055;-67
2022/12/22 10:30:20;;;;;;;64.28;27.67;;;9.00;99.90;;;;;;5057973;28;20055;-69
2022/12/22 10:33:06;;;;;;;59.17;26.77;;;9.20;99.90;;;;;;5060168;28;20029;-71
2022/12/22 10:35:48;;;;;;;55.70;25.45;;;9.30;99.90;;;;;;5060238;28;20059;-69
2022/12/22 10:38:28;;;;;;;52.97;24.73;;;9.50;99.90;;;;;;5058530;28;20033;-69
2022/12/22 10:40:57;;;;;;;49.20;23.67;;;9.60;99.90;;;;;;5059049;28;20044;-68
2022/12/22 10:43:27;;;;;;;55.55;25.17;;;9.70;99.90;;;;;;5059959;28;20034;-67
2022/12/22 10:45:54;;;;;;;53.40;23.50;;;9.80;99.90;;;;;;5042446;28;20045;-69
2022/12/22 10:48:49;;;;;;;48.50;23.55;;;9.80;99.90;;;;;;5059208;28;20040;-68
2022/12/22 10:51:15;;;;;;;46.78;22.48;;;9.90;99.90;;;;;;5051611;28;20037;-69
2022/12/22 10:53:47;;;;;;;49.53;21.45;;;9.80;99.90;;;;;;5055882;28;20116;-71
2022/12/22 10:56:28;;;;;;;46.85;22.58;;;9.80;99.90;;;;;;5055919;28;20088;-68
2022/12/22 10:58:54;;;;;;;46.50;22.27;;;9.70;99.90;;;;;;5056603;28;20045;-68
2022/12/22 11:01:26;;;;;;;50.05;22.70;;;9.60;99.90;;;;;;5055640;28;20056;-68
2022/12/22 11:03:52;;;;;;;53.15;22.70;;;9.50;99.90;;;;;;5057773;28;20035;-68
2022/12/22 11:06:18;;;;;;;45.65;21.85;;;9.50;99.90;;;;;;5059459;28;20053;-69
2022/12/22 11:08:44;;;;;;;55.47;22.20;;;9.60;99.90;;;;;;5059812;28;20025;-68
2022/12/22 11:11:22;;;;;;;54.30;22.52;;;9.50;99.90;;;;;;5060071;28;20112;-69
2022/12/22 11:13:57;;;;;;;50.88;21.73;;;9.40;99.90;;;;;;5058517;28;20017;-67
2022/12/22 11:16:39;;;;;;;46.67;21.45;;;9.30;99.90;;;;;;5059354;28;20108;-68
2022/12/22 11:19:23;;;;;;;44.42;21.02;;;9.20;99.90;;;;;;5060843;28;20044;-68
2022/12/22 11:22:24;;;;;;;40.25;19.30;;;9.10;99.90;;;;;;5056579;28;20510;-68
2022/12/22 11:25:09;;;;;;;44.13;19.05;;;9.10;99.90;;;;;;5008489;28;20063;-68
2022/12/22 11:28:02;;;;;;;45.30;19.73;;;9.10;99.90;;;;;;5052419;28;20041;-68
2022/12/22 11:31:00;;;;;;;47.63;19.90;;;9.30;99.90;;;;;;5058634;28;20033;-68
2022/12/22 11:33:32;;;;;;;46.70;18.85;;;9.50;99.90;;;;;;5039677;28;20037;-66
2022/12/22 11:36:03;;;;;;;44.40;18.25;;;9.60;99.90;;;;;;5038741;28;20025;-68
2022/12/22 11:38:52;;;;;;;43.67;18.50;;;9.60;99.90;;;;;;5057646;28;20029;-69
2022/12/22 11:41:41;;;;;;;41.22;17.17;;;9.70;99.90;;;;;;5052093;28;20039;-68
2022/12/22 11:44:12;;;;;;;37.58;17.08;;;9.90;99.90;;;;;;5037484;28;20068;-70
2022/12/22 11:46:56;;;;;;;32.88;16.27;;;10.10;99.90;;;;;;5053996;28;20048;-68
2022/12/22 11:49:50;;;;;;;33.65;16.08;;;10.60;99.90;;;;;;5040568;28;20025;-68
2022/12/22 11:52:24;;;;;;;36.75;14.73;;;11.00;99.90;;;;;;5052567;28;20033;-67
2022/12/22 11:55:09;;;;;;;;;;;11.20;99.90;;;;;;5050252;28;20040;-68
2022/12/22 11:57:53;;;;;;;33.90;15.57;;;11.30;99.90;;;;;;5051712;28;20422;-69
2022/12/22 12:00:19;;;;;;;36.28;16.48;;;11.30;99.90;;;;;;5056334;28;20126;-68
2022/12/22 12:03:03;;;;;;;35.25;15.57;;;11.50;99.90;;;;;;5052948;28;20030;-68
2022/12/22 12:05:32;;;;;;;37.88;16.45;;;11.50;99.90;;;;;;5053066;28;21000;-70
2022/12/22 12:08:05;;;;;;;30.45;14.98;;;11.70;99.90;;;;;;5035290;28;20037;-68
2022/12/22 12:10:46;;;;;;;33.78;15.85;;;11.60;99.90;;;;;;5052418;28;20036;-68
2022/12/22 12:13:33;;;;;;;31.52;15.38;;;11.70;99.90;;;;;;5053254;28;20047;-66
2022/12/22 12:16:31;;;;;;;32.05;14.40;;;11.80;99.90;;;;;;5048279;28;20037;-68
2022/12/22 12:19:30;;;;;;;36.58;14.75;;;11.90;99.90;;;;;;5036401;28;20029;-70
2022/12/22 12:21:58;;;;;;;36.92;14.57;;;12.00;99.90;;;;;;5051009;28;20107;-66
2022/12/22 12:24:26;;;;;;;26.45;13.15;;;12.10;99.90;;;;;;5052786;28;20046;-68
2022/12/22 12:27:08;;;;;;;33.15;13.75;;;12.20;99.90;;;;;;5052757;28;20033;-65
2022/12/22 12:29:55;;;;;;;32.00;13.73;;;12.40;99.90;;;;;;5041024;28;20045;-69
2022/12/22 12:32:28;;;;;;;29.42;13.27;;;12.70;99.90;;;;;;5054999;28;20031;-69
2022/12/22 12:35:16;;;;;;;32.42;13.32;;;12.80;99.90;;;;;;5039013;28;20522;-68
2022/12/22 12:37:44;;;;;;;29.75;13.23;;;12.80;99.90;;;;;;5057610;28;20032;-69
2022/12/22 12:40:34;;;;;;;27.85;12.80;;;12.60;99.90;;;;;;5057847;28;20025;-70
2022/12/22 12:43:02;;;;;;;26.67;12.05;;;12.60;99.90;;;;;;5055313;28;20106;-68
2022/12/22 12:45:40;;;;;;;27.40;12.20;;;12.50;99.90;;;;;;5057067;28;20129;-67
2022/12/22 12:48:32;;;;;;;28.25;12.13;;;12.50;99.90;;;;;;5061035;28;20021;-68
2022/12/22 12:50:58;;;;;;;29.27;10.50;;;12.20;99.90;;;;;;5039439;28;20049;-69
2022/12/22 12:53:26;;;;;;;25.30;10.80;;;11.90;99.90;;;;;;5055392;28;20134;-69
2022/12/22 12:55:52;;;;;;;22.02;9.85;;;11.60;99.90;;;;;;5042865;28;20037;-67
2022/12/22 12:58:42;;;;;;;30.30;10.65;;;11.30;99.90;;;;;;5056566;28;20024;-69
2022/12/22 13:01:32;;;;;;;27.70;9.45;;;11.10;99.90;;;;;;5049432;28;20083;-69
2022/12/22 13:03:57;;;;;;;21.25;8.65;;;10.90;99.90;;;;;;5057085;28;20040;-68
2022/12/22 13:06:52;;;;;;;26.70;8.95;;;10.70;99.90;;;;;;5060637;28;20032;-69
2022/12/22 13:09:23;;;;;;;25.75;8.18;;;10.50;99.90;;;;;;5057888;28;20397;-68
2022/12/22 13:11:49;;;;;;;23.27;8.25;;;10.40;99.90;;;;;;5053753;28;20097;-68
2022/12/22 13:14:52;;;;;;;22.50;8.00;;;10.20;99.90;;;;;;5055262;28;20040;-68
2022/12/22 13:17:37;;;;;;;24.33;8.27;;;10.00;99.90;;;;;;5039236;28;20033;-68
2022/12/22 13:20:24;;;;;;;19.17;7.90;;;9.80;99.90;;;;;;5054361;28;20049;-71
2022/12/22 13:22:59;;;;;;;26.23;8.13;;;9.70;99.90;;;;;;5031589;28;20041;-69
2022/12/22 13:25:44;;;;;;;33.60;7.85;;;9.60;99.90;;;;;;5050149;28;20054;-68
2022/12/22 13:28:15;;;;;;;24.77;8.07;;;9.60;99.90;;;;;;5032768;28;20133;-69
2022/12/22 13:30:48;;;;;;;24.13;8.23;;;9.60;99.90;;;;;;5047849;28;20183;-69
2022/12/22 13:33:19;;;;;;;25.70;7.93;;;9.50;99.90;;;;;;5047043;28;20292;-70
2022/12/22 13:35:46;;;;;;;26.08;7.50;;;9.50;99.90;;;;;;5046598;28;20029;-67
2022/12/22 13:38:33;;;;;;;26.92;7.78;;;9.50;99.90;;;;;;5030409;28;20029;-69
2022/12/22 13:41:02;;;;;;;20.08;7.07;;;9.50;99.90;;;;;;5046421;28;20033;-68
2022/12/22 13:43:29;;;;;;;20.73;6.93;;;9.40;99.90;;;;;;5044465;28;20034;-67
2022/12/22 13:45:56;;;;;;;19.42;6.65;;;9.50;99.90;;;;;;5047399;28;20051;-68
2022/12/22 13:48:47;;;;;;;18.50;6.65;;;9.40;99.90;;;;;;5045407;28;20120;-67
2022/12/22 13:51:20;;;;;;;22.63;7.05;;;9.30;99.90;;;;;;5040967;28;20037;-70
2022/12/22 13:53:50;;;;;;;21.85;7.00;;;9.20;99.90;;;;;;5049058;28;20049;-70
2022/12/22 13:56:21;;;;;;;17.92;6.50;;;9.10;99.90;;;;;;5039368;28;20055;-69
2022/12/22 13:58:51;;;;;;;16.92;6.82;;;9.10;99.90;;;;;;5040237;28;20029;-68
2022/12/22 14:01:18;;;;;;;25.70;9.57;;;9.00;99.90;;;;;;5040453;28;20128;-69
2022/12/22 14:03:57;;;;;;;25.90;8.30;;;9.00;99.90;;;;;;5049606;28;20049;-69
2022/12/22 14:06:32;;;;;;;22.83;7.55;;;9.00;99.90;;;;;;5047855;28;20021;-70
2022/12/22 14:09:11;;;;;;;27.88;8.07;;;9.00;99.90;;;;;;5046760;28;20351;-68
2022/12/22 14:11:36;;;;;;;30.42;7.85;;;9.00;99.90;;;;;;5046198;28;20090;-70
2022/12/22 14:14:07;;;;;;;23.13;8.10;;;8.90;99.90;;;;;;5047961;28;20026;-68
2022/12/22 14:16:33;;;;;;;20.33;7.82;;;8.80;99.90;;;;;;5041292;28;20040;-68
2022/12/22 14:18:59;;;;;;;24.77;8.02;;;8.80;99.90;;;;;;5046887;28;20021;-69
2022/12/22 14:21:25;;;;;;;24.25;7.07;;;8.70;99.90;;;;;;5047590;28;20555;-70
2022/12/22 14:23:51;;;;;;;23.10;7.60;;;8.60;99.90;;;;;;5046238;28;20027;-69
2022/12/22 14:26:23;;;;;;;19.40;7.28;;;8.50;99.90;;;;;;5041244;28;20069;-66
2022/12/22 14:28:54;;;;;;;18.92;7.18;;;8.40;99.90;;;;;;5043106;28;20048;-70
2022/12/22 14:31:20;;;;;;;24.95;8.02;;;8.40;99.90;;;;;;5032281;28;20083;-68
2022/12/22 14:33:54;;;;;;;21.58;7.55;;;8.30;99.90;;;;;;5045982;28;20473;-70
2022/12/22 14:36:25;;;;;;;28.65;8.60;;;8.30;99.90;;;;;;5029632;28;20033;-69
2022/12/22 14:38:53;;;;;;;26.85;8.00;;;8.30;99.90;;;;;;5046338;28;20071;-69
2022/12/22 14:41:42;;;;;;;25.52;8.02;;;8.20;99.90;;;;;;5045039;28;20040;-68
2022/12/22 14:44:31;;;;;;;22.35;7.45;;;8.20;99.90;;;;;;5044989;28;20024;-71
2022/12/22 14:47:19;;;;;;;19.52;6.90;;;8.20;99.90;;;;;;5046558;28;20036;-69
2022/12/22 14:49:58;;;;;;;25.05;8.93;;;8.10;99.90;;;;;;5031631;28;20028;-68
2022/12/22 14:52:38;;;;;;;29.77;7.80;;;8.10;99.90;;;;;;5049107;28;20028;-68
2022/12/22 14:55:20;;;;;;;22.35;7.93;;;8.00;99.90;;;;;;5019808;28;20021;-70
2022/12/22 14:57:52;;;;;;;22.88;7.75;;;8.00;99.90;;;;;;5046236;28;20022;-70
2022/12/22 15:00:20;;;;;;;27.30;9.05;;;7.90;99.90;;;;;;5045098;28;20029;-69
2022/12/22 15:02:52;;;;;;;21.98;7.75;;;7.90;99.90;;;;;;5044377;28;20047;-69
2022/12/22 15:05:36;;;;;;;30.85;8.82;;;7.90;99.90;;;;;;5044251;28;20044;-68
2022/12/22 15:08:04;;;;;;;21.58;7.85;;;7.90;99.90;;;;;;5039784;28;20916;-70
2022/12/22 15:10:37;;;;;;;25.63;9.55;;;7.80;99.90;;;;;;5045027;28;20021;-69
2022/12/22 15:13:06;;;;;;;21.83;9.05;;;7.80;99.90;;;;;;5032723;28;20029;-68
2022/12/22 15:15:32;;;;;;;23.38;7.47;;;7.70;99.90;;;;;;5038174;28;20033;-69
2022/12/22 15:17:58;;;;;;;28.20;8.43;;;7.70;99.90;;;;;;5028865;28;20095;-67
2022/12/22 15:20:26;;;;;;;28.30;8.95;;;7.70;99.90;;;;;;5044385;28;20075;-68
2022/12/22 15:22:54;;;;;;;26.02;9.02;;;7.70;99.90;;;;;;5051635;28;20025;-69
2022/12/22 15:25:21;;;;;;;24.80;9.00;;;7.70;99.90;;;;;;5049424;28;20037;-70
2022/12/22 15:27:48;;;;;;;28.08;9.90;;;7.70;99.90;;;;;;5057400;28;20131;-69
2022/12/22 15:30:17;;;;;;;26.27;9.27;;;7.60;99.90;;;;;;5051887;28;20036;-70
2022/12/22 15:32:43;;;;;;;25.23;9.13;;;7.60;99.90;;;;;;5054328;28;20025;-69
2022/12/22 15:35:33;;;;;;;27.90;8.82;;;7.70;99.90;;;;;;5050271;28;20025;-70
2022/12/22 15:38:00;;;;;;;34.20;9.05;;;7.70;99.90;;;;;;5049720;28;20053;-68
2022/12/22 15:40:27;;;;;;;24.10;9.13;;;7.70;99.90;;;;;;5050840;28;20025;-69
2022/12/22 15:42:52;;;;;;;28.10;8.38;;;7.70;99.90;;;;;;5059304;28;20044;-69
2022/12/22 15:45:20;;;;;;;25.60;8.27;;;7.70;99.90;;;;;;5051480;28;20061;-69
2022/12/22 15:47:49;;;;;;;27.67;8.27;;;7.70;99.90;;;;;;5055120;28;20135;-68
2022/12/22 15:50:21;;;;;;;28.88;9.48;;;7.70;99.90;;;;;;5042486;28;20032;-70
2022/12/22 15:52:53;;;;;;;27.02;9.68;;;7.70;99.90;;;;;;5050369;28;20027;-68
2022/12/22 15:55:20;;;;;;;31.42;10.10;;;7.70;99.90;;;;;;5053459;28;20037;-68
2022/12/22 15:57:49;;;;;;;40.00;8.60;;;7.70;99.90;;;;;;5040810;28;20029;-69
2022/12/22 16:00:15;;;;;;;26.58;9.77;;;7.70;99.90;;;;;;5032233;28;20021;-66
2022/12/22 16:02:40;;;;;;;30.63;8.60;;;7.70;99.90;;;;;;5057074;28;20017;-68
2022/12/22 16:05:06;;;;;;;31.50;9.80;;;7.70;99.90;;;;;;5046012;28;20064;-70
2022/12/22 16:07:32;;;;;;;28.40;9.38;;;7.70;99.90;;;;;;5051633;28;20505;-69
2022/12/22 16:10:00;;;;;;;29.63;9.25;;;7.70;99.90;;;;;;5035425;28;20029;-70
2022/12/22 16:12:25;;;;;;;26.17;9.43;;;7.70;99.90;;;;;;5053968;28;20440;-70
2022/12/22 16:14:55;;;;;;;32.42;10.52;;;7.70;99.90;;;;;;5050430;28;20064;-68
2022/12/22 16:17:25;;;;;;;25.58;9.52;;;7.70;99.90;;;;;;5058425;28;20040;-68
2022/12/22 16:19:51;;;;;;;27.67;9.75;;;7.70;99.90;;;;;;5051272;28;20032;-69
2022/12/22 16:22:27;;;;;;;26.27;10.45;;;7.80;99.90;;;;;;5061626;28;20017;-71
2022/12/22 16:24:53;;;;;;;26.70;9.90;;;7.70;99.90;;;;;;5061554;28;20118;-69
2022/12/22 16:27:19;;;;;;;32.20;9.95;;;7.70;99.90;;;;;;5061817;28;20466;-69
2022/12/22 16:29:49;;;;;;;37.05;12.05;;;7.70;99.90;;;;;;5063640;28;20108;-68
2022/12/22 16:32:24;;;;;;;32.60;12.10;;;7.70;99.90;;;;;;5062501;28;20056;-70
2022/12/22 16:34:50;;;;;;;30.58;10.93;;;7.70;99.90;;;;;;5062510;28;20027;-68
2022/12/22 16:37:16;;;;;;;25.40;9.88;;;7.70;99.90;;;;;;5056878;28;20041;-70